Aeroporto :
LOGIN :

Iscrizione | Disclaimer

   EN    FR    IT 

 










Sommario :    VFR   VFR Marginale   IFR   IFR Intensivo   IFR Molto Intensivo
Visibilità : 
Base nubi : 
>= 8 km
>= 3000ft
5 / 8 km
1000 / 3000 ft
1500m / 5 km
500 / 1000 ft
800 / 1500m
200 / 500 ft
< 800m
< 200 ft
Simboli :   Temporali  Nebbia  Neve Forte  Precipitazioni Forti  Vento > 20 kt
SIGMETs :   Varie  Temporali  Ghiacco  Turbolenza  Onda orograficha  Ceneri Vulcaniche






- Altitudine del aeroporto : 489 ft
- Codice IATA : GDN


EPGD - Gdansk

ULTIMO METAR :
  • 210730Z 23006KT 7000 -RA FEW006 BKN007 09/08 Q1010

METARs OBSOLETI :
  • 210700Z 23006KT 7000 -RA FEW006 SCT020 09/08 Q1010
  • 210630Z 23006KT 9000 -RA SCT007 09/08 Q1010
  • 210600Z 23007KT 9999 -RA NSC 09/07 Q1010
  • 210530Z 23006KT 8000 -RA NSC 08/07 Q1010
  • 210500Z 23007KT 9999 -RA NSC 09/07 Q1010

TAF TAF EPGD
Valido dal 21 a 06 ore il 22 a 06 ore UTC


210530Z 2106/2206 19010KT 9999 BKN010 BKN014
TEMPO 2106/2111 -RA BKN006 BKN009
PROB40
TEMPO 2106/2109 2500 DZ BR BKN004
TEMPO 2111/2206 24015G27KT
PROB40
TEMPO 2111/2120 BKN014CB



MetMap, La meteo Aeronautica in un colpo d'occhio ! - Copyright ORBIFLY Dicembre 2007 - Disclaimer

ORBIFLY MET'MAP TEAM :

Programmazione e sviluppo : Alexandra Zaïnal
Concezione : Baudouin d'Aumeries
Aiuto per la programmazione : Marc-Olivier Méhu
Supporto tecnico e logistico : Manuel Goepfert
Aiuto per la traduzione : Arnaldo La Scala

Contatto : metmap@orbifly.com




FONTI E CREDITI :

   NOAA